createdAt,value
2023-03-27T00:01:40.271Z,19.33
2023-03-27T00:04:11.231Z,19.34
2023-03-27T00:06:49.981Z,19.29
2023-03-27T00:09:22.208Z,19.31
2023-03-27T00:11:53.501Z,19.23
2023-03-27T00:14:25.166Z,19.26
2023-03-27T00:16:55.118Z,19.15
2023-03-27T00:19:26.184Z,19.15
2023-03-27T00:21:57.356Z,19.10
2023-03-27T00:24:28.601Z,19.08
2023-03-27T00:26:59.332Z,19.08
2023-03-27T00:29:29.980Z,19.09
2023-03-27T00:32:01.719Z,19.06
2023-03-27T00:34:33.323Z,19.03
2023-03-27T00:37:05.816Z,18.99
2023-03-27T00:39:37.270Z,18.94
2023-03-27T00:42:08.063Z,18.89
2023-03-27T00:44:39.889Z,18.95
2023-03-27T00:47:13.897Z,18.96
2023-03-27T00:49:45.091Z,18.94
2023-03-27T00:52:17.956Z,18.91
2023-03-27T00:54:50.152Z,18.82
2023-03-27T00:57:23.101Z,18.89
2023-03-27T00:59:56.464Z,18.91
2023-03-27T01:02:28.565Z,18.89
2023-03-27T01:04:59.382Z,18.95
2023-03-27T01:07:29.872Z,18.98
2023-03-27T01:10:00.293Z,18.88
2023-03-27T01:12:46.429Z,18.92
2023-03-27T01:15:39.149Z,18.95
2023-03-27T01:18:26.163Z,18.95
2023-03-27T01:21:32.258Z,18.92
2023-03-27T01:24:18.397Z,18.91
2023-03-27T01:27:17.838Z,18.88
2023-03-27T01:30:07.725Z,18.87
2023-03-27T01:32:59.516Z,18.87
2023-03-27T01:35:30.965Z,18.89
2023-03-27T01:38:34.918Z,18.91
2023-03-27T01:41:14.155Z,18.84
2023-03-27T01:44:01.282Z,18.92
2023-03-27T01:46:37.657Z,19.05
2023-03-27T01:49:14.945Z,19.18
2023-03-27T01:52:00.086Z,19.26
2023-03-27T01:54:46.177Z,19.29
2023-03-27T01:57:26.183Z,19.39
2023-03-27T02:00:18.465Z,19.40
2023-03-27T02:03:04.171Z,19.34
2023-03-27T02:05:58.055Z,19.34
2023-03-27T02:08:36.868Z,19.33
2023-03-27T02:11:26.159Z,19.34
2023-03-27T02:14:04.285Z,19.34
2023-03-27T02:16:39.092Z,19.34
2023-03-27T02:19:20.896Z,19.37
2023-03-27T02:21:51.575Z,19.36
2023-03-27T02:24:23.764Z,19.36
2023-03-27T02:27:07.332Z,19.33
2023-03-27T02:29:50.548Z,19.30
2023-03-27T02:32:37.558Z,19.27
2023-03-27T02:35:48.016Z,19.30
2023-03-27T02:38:43.114Z,19.27
2023-03-27T02:41:19.201Z,19.27
2023-03-27T02:44:12.130Z,19.27
2023-03-27T02:47:15.524Z,19.30
2023-03-27T02:49:58.412Z,19.34
2023-03-27T02:52:57.218Z,19.39
2023-03-27T02:55:35.952Z,19.41
2023-03-27T02:58:21.770Z,19.40
2023-03-27T03:01:02.913Z,19.39
2023-03-27T03:03:44.836Z,19.41
2023-03-27T03:06:31.619Z,19.45
2023-03-27T03:09:07.872Z,19.41
2023-03-27T03:11:50.072Z,19.45
2023-03-27T03:14:24.823Z,19.40
2023-03-27T03:16:55.645Z,19.34
2023-03-27T03:19:26.044Z,19.31
2023-03-27T03:21:57.992Z,19.26
2023-03-27T03:24:28.795Z,19.18
2023-03-27T03:27:01.189Z,19.12
2023-03-27T03:29:36.921Z,19.06
2023-03-27T03:32:17.819Z,19.05
2023-03-27T03:34:48.850Z,19.00
2023-03-27T03:37:18.867Z,18.95
2023-03-27T03:39:49.644Z,18.95
2023-03-27T03:42:23.099Z,18.99
2023-03-27T03:44:55.882Z,18.96
2023-03-27T03:47:26.895Z,18.95
2023-03-27T03:49:57.846Z,18.99
2023-03-27T03:52:32.796Z,19.00
2023-03-27T03:55:07.627Z,19.13
2023-03-27T03:57:38.002Z,19.24
2023-03-27T04:00:13.683Z,19.31
2023-03-27T04:02:47.257Z,19.39
2023-03-27T04:05:19.594Z,19.37
2023-03-27T04:07:54.468Z,19.41
2023-03-27T04:10:59.766Z,19.41
2023-03-27T04:13:59.263Z,19.40
2023-03-27T04:16:35.697Z,19.43
2023-03-27T04:19:14.931Z,19.45
2023-03-27T04:21:49.247Z,19.45
2023-03-27T04:24:22.410Z,19.40
2023-03-27T04:26:54.754Z,19.43
2023-03-27T04:29:27.726Z,19.39
2023-03-27T04:32:04.310Z,19.36
2023-03-27T04:34:44.305Z,19.24
2023-03-27T04:37:33.331Z,19.23
2023-03-27T04:40:15.918Z,19.18
2023-03-27T04:42:47.281Z,19.16
2023-03-27T04:45:21.458Z,19.10
2023-03-27T04:47:54.089Z,19.08
2023-03-27T04:50:24.984Z,19.08
2023-03-27T04:52:59.735Z,19.12
2023-03-27T04:55:39.068Z,19.16
2023-03-27T04:58:13.963Z,19.22
2023-03-27T05:00:45.133Z,19.22
2023-03-27T05:03:38.458Z,19.20
2023-03-27T05:06:18.527Z,19.23
2023-03-27T05:08:49.527Z,19.22
2023-03-27T05:11:28.251Z,19.16
2023-03-27T05:13:59.459Z,19.15
2023-03-27T05:16:32.767Z,19.15
2023-03-27T05:19:04.861Z,19.15
2023-03-27T05:21:45.619Z,19.15
2023-03-27T05:24:17.216Z,19.10
2023-03-27T05:26:49.746Z,19.05
2023-03-27T05:29:20.625Z,19.02
2023-03-27T05:32:01.124Z,19.02
2023-03-27T05:34:43.839Z,18.99
2023-03-27T05:37:17.588Z,18.95
2023-03-27T05:40:11.604Z,18.91
2023-03-27T05:42:46.673Z,18.84
2023-03-27T05:45:17.314Z,18.88
2023-03-27T05:47:48.601Z,18.94
2023-03-27T05:50:21.487Z,18.96
2023-03-27T05:53:00.975Z,18.99
2023-03-27T05:55:37.692Z,18.98
2023-03-27T05:58:11.184Z,19.03
2023-03-27T06:00:44.671Z,19.05
2023-03-27T06:03:21.663Z,19.00
2023-03-27T06:06:12.271Z,18.99
2023-03-27T06:08:47.339Z,18.98
2023-03-27T06:11:19.467Z,18.92
2023-03-27T06:13:50.856Z,18.89
2023-03-27T06:16:26.832Z,18.89
2023-03-27T06:19:18.323Z,18.91
2023-03-27T06:21:54.257Z,18.87
2023-03-27T06:24:25.281Z,18.78
2023-03-27T06:26:56.704Z,18.62
2023-03-27T06:29:30.731Z,18.55
2023-03-27T06:32:02.984Z,18.58
2023-03-27T06:34:39.173Z,18.60
2023-03-27T06:37:26.857Z,18.60
2023-03-27T06:39:58.843Z,18.54
2023-03-27T06:42:29.498Z,18.52
2023-03-27T06:45:23.718Z,18.45
2023-03-27T06:48:20.857Z,18.41
2023-03-27T06:50:56.284Z,18.31
2023-03-27T06:53:28.601Z,18.26
2023-03-27T06:56:01.061Z,18.14
2023-03-27T06:58:45.112Z,18.16
2023-03-27T07:01:15.896Z,18.12
2023-03-27T07:04:08.195Z,17.97
2023-03-27T07:06:55.293Z,17.96
2023-03-27T07:09:25.470Z,17.97
2023-03-27T07:12:05.391Z,17.86
2023-03-27T07:14:38.827Z,17.82
2023-03-27T07:17:09.650Z,17.78
2023-03-27T07:19:54.630Z,17.81
2023-03-27T07:22:30.232Z,17.71
2023-03-27T07:25:07.677Z,17.66
2023-03-27T07:27:43.948Z,17.66
2023-03-27T07:30:15.425Z,17.63
2023-03-27T07:32:48.272Z,17.63
2023-03-27T07:35:20.186Z,17.59
2023-03-27T07:38:15.402Z,17.63
2023-03-27T07:41:07.948Z,17.48
2023-03-27T07:43:47.927Z,17.45
2023-03-27T07:46:19.026Z,17.56
2023-03-27T07:48:49.376Z,17.58
2023-03-27T07:51:23.841Z,17.53
2023-03-27T07:54:00.794Z,17.38
2023-03-27T07:56:37.088Z,17.44
2023-03-27T07:59:29.330Z,17.39
2023-03-27T08:02:07.095Z,17.45
2023-03-27T08:04:40.723Z,17.27
2023-03-27T08:07:13.011Z,17.41
2023-03-27T08:09:45.810Z,17.36
2023-03-27T08:12:16.806Z,17.42
2023-03-27T08:14:57.750Z,17.46
2023-03-27T08:17:32.660Z,17.49
2023-03-27T08:20:06.252Z,17.42
2023-03-27T08:22:40.612Z,17.42
2023-03-27T08:25:51.511Z,17.49
2023-03-27T08:28:28.438Z,17.59
2023-03-27T08:31:02.816Z,17.69
2023-03-27T08:33:37.695Z,17.68
2023-03-27T08:36:13.974Z,17.68
2023-03-27T08:38:46.276Z,17.63
2023-03-27T08:41:31.918Z,17.61
2023-03-27T08:44:27.420Z,17.53
2023-03-27T08:47:06.051Z,17.51
2023-03-27T08:49:53.463Z,17.55
2023-03-27T08:52:33.158Z,17.51
2023-03-27T08:55:19.764Z,17.52
2023-03-27T08:57:59.389Z,17.49
2023-03-27T09:00:42.370Z,17.36
2023-03-27T09:03:40.128Z,17.42
2023-03-27T09:06:31.263Z,17.39
2023-03-27T09:09:37.371Z,17.27
2023-03-27T09:12:42.155Z,17.27
2023-03-27T09:15:23.166Z,17.20
2023-03-27T09:18:02.595Z,17.18
2023-03-27T09:20:48.159Z,17.06
2023-03-27T09:23:47.469Z,17.03
2023-03-27T09:26:39.277Z,17.11
2023-03-27T09:29:21.046Z,17.13
2023-03-27T09:31:59.852Z,17.04
2023-03-27T09:34:35.360Z,17.06
2023-03-27T09:37:18.140Z,17.08
2023-03-27T09:39:53.671Z,17.03
2023-03-27T09:42:41.285Z,16.99
2023-03-27T09:45:15.075Z,16.99
2023-03-27T09:48:05.511Z,17.02
2023-03-27T09:50:49.389Z,17.06
2023-03-27T09:53:36.484Z,17.13
2023-03-27T09:56:22.197Z,17.23
2023-03-27T09:58:57.854Z,17.30
2023-03-27T10:01:36.041Z,17.31
2023-03-27T10:04:24.495Z,17.41
2023-03-27T10:07:02.613Z,17.49
2023-03-27T10:10:16.057Z,17.65
2023-03-27T10:13:19.824Z,17.68
2023-03-27T10:16:07.298Z,17.79
2023-03-27T10:18:59.903Z,18.04
2023-03-27T10:21:41.362Z,18.14
2023-03-27T10:24:45.937Z,18.20
2023-03-27T10:27:27.824Z,18.38
2023-03-27T10:30:35.970Z,18.64
2023-03-27T10:33:42.378Z,19.12
2023-03-27T10:36:36.479Z,19.34
2023-03-27T10:39:15.756Z,19.66
2023-03-27T10:42:12.105Z,19.82
2023-03-27T10:44:49.811Z,19.98
2023-03-27T10:47:42.035Z,20.08
2023-03-27T10:50:20.187Z,20.21
2023-03-27T10:53:06.081Z,20.43
2023-03-27T10:55:55.728Z,20.73
2023-03-27T10:58:34.106Z,20.98
2023-03-27T11:01:20.986Z,21.24
2023-03-27T11:04:04.741Z,21.23
2023-03-27T11:06:45.223Z,21.12
2023-03-27T11:09:27.518Z,21.14
2023-03-27T11:12:17.840Z,21.54
2023-03-27T11:15:23.289Z,22.55
2023-03-27T11:18:23.457Z,22.84
2023-03-27T11:21:07.230Z,22.51
2023-03-27T11:23:57.193Z,22.95
2023-03-27T11:26:48.820Z,22.71
2023-03-27T11:29:29.580Z,23.09
2023-03-27T11:32:35.991Z,27.15
2023-03-27T11:35:18.754Z,28.59
2023-03-27T11:38:09.208Z,30.08
2023-03-27T11:40:50.623Z,31.03
2023-03-27T11:43:24.092Z,30.94
2023-03-27T11:46:21.402Z,29.31
2023-03-27T11:48:57.958Z,26.65
2023-03-27T11:51:51.603Z,25.15
2023-03-27T11:54:44.206Z,24.49
2023-03-27T11:57:28.620Z,24.39
2023-03-27T12:00:26.616Z,26.03
2023-03-27T12:03:38.809Z,26.70
2023-03-27T12:06:43.011Z,24.60
2023-03-27T12:09:41.350Z,23.57
2023-03-27T12:13:02.347Z,23.02
2023-03-27T12:15:54.365Z,22.51
2023-03-27T12:19:02.126Z,22.36
2023-03-27T12:21:51.831Z,22.34
2023-03-27T12:24:59.501Z,22.84
2023-03-27T12:28:23.194Z,22.87
2023-03-27T12:31:37.801Z,23.09
2023-03-27T12:34:22.498Z,25.71
2023-03-27T12:36:54.884Z,26.67
2023-03-27T12:39:30.027Z,28.38
2023-03-27T12:42:17.156Z,28.82
2023-03-27T12:45:16.934Z,29.59
2023-03-27T12:48:13.353Z,29.28
2023-03-27T12:50:46.206Z,28.63
2023-03-27T12:53:29.926Z,27.05
2023-03-27T12:56:15.117Z,26.58
2023-03-27T12:58:49.093Z,26.44
2023-03-27T13:04:34.342Z,29.04
2023-03-27T13:07:21.380Z,29.33
2023-03-27T13:10:25.909Z,29.58
2023-03-27T13:13:08.576Z,29.61
2023-03-27T13:15:55.688Z,29.69
2023-03-27T13:18:49.703Z,30.14
2023-03-27T13:21:38.910Z,29.06
2023-03-27T13:24:34.588Z,29.04
2023-03-27T13:27:24.121Z,29.27
2023-03-27T13:29:55.760Z,29.58
2023-03-27T13:32:43.678Z,30.63
2023-03-27T13:35:42.115Z,30.71
2023-03-27T13:38:15.794Z,29.04
2023-03-27T13:41:39.636Z,27.22
2023-03-27T13:44:41.311Z,27.15
2023-03-27T13:47:30.375Z,26.54
2023-03-27T13:50:28.858Z,26.36
2023-03-27T13:53:30.844Z,26.14
2023-03-27T13:56:27.941Z,25.72
2023-03-27T13:59:52.694Z,26.23
2023-03-27T14:03:10.171Z,26.24
2023-03-27T14:06:13.407Z,26.47
2023-03-27T14:09:11.959Z,26.95
2023-03-27T14:12:47.221Z,28.01
2023-03-27T14:16:10.055Z,29.72
2023-03-27T14:19:11.456Z,30.17
2023-03-27T14:22:05.964Z,30.16
2023-03-27T14:25:02.946Z,30.03
2023-03-27T14:27:43.908Z,30.22
2023-03-27T14:30:17.422Z,29.78
2023-03-27T14:32:56.359Z,30.17
2023-03-27T14:35:37.497Z,30.26
2023-03-27T14:38:25.944Z,28.99
2023-03-27T14:41:03.069Z,30.12
2023-03-27T14:43:51.805Z,28.90
2023-03-27T14:46:25.280Z,29.10
2023-03-27T14:49:01.879Z,27.94
2023-03-27T14:51:43.949Z,27.12
2023-03-27T14:54:39.158Z,29.62
2023-03-27T14:57:17.212Z,29.92
2023-03-27T14:59:58.903Z,30.39
2023-03-27T15:02:37.049Z,31.42
2023-03-27T15:05:13.856Z,31.21
2023-03-27T15:07:50.102Z,30.23
2023-03-27T15:10:40.353Z,30.30
2023-03-27T15:13:39.358Z,28.19
2023-03-27T15:16:22.037Z,29.07
2023-03-27T15:19:27.473Z,29.48
2023-03-27T15:22:03.540Z,29.71
2023-03-27T15:24:46.047Z,29.98
2023-03-27T15:27:38.889Z,30.59
2023-03-27T15:30:33.218Z,30.82
2023-03-27T15:33:06.375Z,30.36
2023-03-27T15:35:43.941Z,30.03
2023-03-27T15:38:18.136Z,30.20
2023-03-27T15:40:52.379Z,30.68
2023-03-27T15:43:25.536Z,30.67
2023-03-27T15:46:27.701Z,29.93
2023-03-27T15:48:58.404Z,30.22
2023-03-27T15:51:28.866Z,29.62
2023-03-27T15:53:59.334Z,29.06
2023-03-27T15:56:45.598Z,30.09
2023-03-27T15:59:18.256Z,30.09
2023-03-27T16:02:12.341Z,30.26
2023-03-27T16:04:45.915Z,30.29
2023-03-27T16:07:22.221Z,30.85
2023-03-27T16:09:59.389Z,32.04
2023-03-27T16:12:51.114Z,31.65
2023-03-27T16:15:43.812Z,31.09
2023-03-27T16:18:28.340Z,29.07
2023-03-27T16:21:14.749Z,30.10
2023-03-27T16:23:46.142Z,31.03
2023-03-27T16:26:20.626Z,30.88
2023-03-27T16:28:52.287Z,31.32
2023-03-27T16:31:23.558Z,31.03
2023-03-27T16:33:54.920Z,30.90
2023-03-27T16:36:31.633Z,31.45
2023-03-27T16:39:02.022Z,30.95
2023-03-27T16:41:34.156Z,31.03
2023-03-27T16:44:04.353Z,31.42
2023-03-27T16:46:34.666Z,31.62
2023-03-27T16:49:06.213Z,31.63
2023-03-27T16:51:36.957Z,32.35
2023-03-27T16:54:08.210Z,31.93
2023-03-27T16:56:38.259Z,32.04
2023-03-27T16:59:08.523Z,32.14
2023-03-27T17:01:39.279Z,31.65
2023-03-27T17:04:09.112Z,31.63
2023-03-27T17:06:41.858Z,31.77
2023-03-27T17:09:13.676Z,31.76
2023-03-27T17:11:44.781Z,32.08
2023-03-27T17:14:15.063Z,32.16
2023-03-27T17:16:45.893Z,32.34
2023-03-27T17:19:16.460Z,32.71
2023-03-27T17:21:47.830Z,32.51
2023-03-27T17:24:20.919Z,32.68
2023-03-27T17:26:51.398Z,32.41
2023-03-27T17:29:21.444Z,32.21
2023-03-27T17:31:53.178Z,32.87
2023-03-27T17:34:24.014Z,32.45
2023-03-27T17:36:54.921Z,32.68
2023-03-27T17:39:29.155Z,33.02
2023-03-27T17:41:59.698Z,33.13
2023-03-27T17:44:30.037Z,30.40
2023-03-27T17:47:01.717Z,29.39
2023-03-27T17:49:32.936Z,30.64
2023-03-27T17:52:09.236Z,31.72
2023-03-27T17:54:41.827Z,32.64
2023-03-27T17:57:12.504Z,32.76
2023-03-27T17:59:42.399Z,32.46
2023-03-27T18:02:19.780Z,32.52
2023-03-27T18:04:53.481Z,32.82
2023-03-27T18:07:24.708Z,32.79
2023-03-27T18:09:54.956Z,32.69
2023-03-27T18:12:26.296Z,33.07
2023-03-27T18:14:57.573Z,33.81
2023-03-27T18:17:29.089Z,33.84
2023-03-27T18:19:59.252Z,34.16
2023-03-27T18:22:29.764Z,34.31
2023-03-27T18:25:00.954Z,34.25
2023-03-27T18:27:31.972Z,30.90
2023-03-27T18:30:03.288Z,28.87
2023-03-27T18:32:33.914Z,32.06
2023-03-27T18:35:05.242Z,33.44
2023-03-27T18:37:36.208Z,35.35
2023-03-27T18:40:10.752Z,35.93
2023-03-27T18:42:45.090Z,34.15
2023-03-27T18:45:18.117Z,30.16
2023-03-27T18:47:48.525Z,28.82
2023-03-27T18:50:18.459Z,28.08
2023-03-27T18:52:49.081Z,27.36
2023-03-27T18:55:20.287Z,28.31
2023-03-27T18:57:50.649Z,30.32
2023-03-27T19:00:21.521Z,34.83
2023-03-27T19:02:51.984Z,36.27
2023-03-27T19:05:22.572Z,36.45
2023-03-27T19:07:58.729Z,36.68
2023-03-27T19:10:29.556Z,37.26
2023-03-27T19:13:17.552Z,37.25
2023-03-27T19:16:14.126Z,36.92
2023-03-27T19:19:04.313Z,37.11
2023-03-27T19:21:53.578Z,37.25
2023-03-27T19:24:52.610Z,36.68
2023-03-27T19:27:24.650Z,36.66
2023-03-27T19:29:56.310Z,32.46
2023-03-27T19:32:27.089Z,29.76
2023-03-27T19:34:57.361Z,28.53
2023-03-27T19:37:27.599Z,27.93
2023-03-27T19:40:00.447Z,27.49
2023-03-27T19:42:30.733Z,27.23
2023-03-27T19:45:01.008Z,27.03
2023-03-27T19:47:31.713Z,26.88
2023-03-27T19:50:03.274Z,26.75
2023-03-27T19:53:01.182Z,26.67
2023-03-27T19:55:35.912Z,26.58
2023-03-27T19:58:06.516Z,26.44
2023-03-27T20:00:40.493Z,26.22
2023-03-27T20:03:11.651Z,25.97
2023-03-27T20:05:42.512Z,26.12
2023-03-27T20:08:12.878Z,25.76
2023-03-27T20:10:45.218Z,25.64
2023-03-27T20:13:17.153Z,25.45
2023-03-27T20:15:50.167Z,25.25
2023-03-27T20:18:23.327Z,25.10
2023-03-27T20:20:57.401Z,25.03
2023-03-27T20:23:32.837Z,24.88
2023-03-27T20:26:04.452Z,24.75
2023-03-27T20:28:39.239Z,24.72
2023-03-27T20:31:12.043Z,24.60
2023-03-27T20:33:42.709Z,24.49
2023-03-27T20:36:13.403Z,24.40
2023-03-27T20:38:44.822Z,24.40
2023-03-27T20:41:16.972Z,24.30
2023-03-27T20:43:48.583Z,24.19
2023-03-27T20:46:20.031Z,24.14
2023-03-27T20:48:54.113Z,24.11
2023-03-27T20:51:26.265Z,23.85
2023-03-27T20:53:59.290Z,23.80
2023-03-27T20:56:29.267Z,23.67
2023-03-27T20:58:59.944Z,23.57
2023-03-27T21:01:30.436Z,23.31
2023-03-27T21:04:03.184Z,23.20
2023-03-27T21:06:36.647Z,23.12
2023-03-27T21:09:08.540Z,22.99
2023-03-27T21:11:39.475Z,22.92
2023-03-27T21:14:10.083Z,22.91
2023-03-27T21:16:40.916Z,22.68
2023-03-27T21:19:12.042Z,22.58
2023-03-27T21:21:44.117Z,22.45
2023-03-27T21:24:15.155Z,22.39
2023-03-27T21:26:45.331Z,22.34
2023-03-27T21:29:16.449Z,22.24
2023-03-27T21:31:47.199Z,22.12
2023-03-27T21:34:18.040Z,22.04
2023-03-27T21:36:49.368Z,21.88
2023-03-27T21:39:19.399Z,21.82
2023-03-27T21:41:49.892Z,21.78
2023-03-27T21:44:21.419Z,21.58
2023-03-27T21:46:51.575Z,21.49
2023-03-27T21:49:21.950Z,21.54
2023-03-27T21:51:53.551Z,21.49
2023-03-27T21:54:25.269Z,21.42
2023-03-27T21:56:55.520Z,21.37
2023-03-27T21:59:26.499Z,21.28
2023-03-27T22:01:58.031Z,21.24
2023-03-27T22:04:29.686Z,21.30
2023-03-27T22:07:00.005Z,21.25
2023-03-27T22:09:29.773Z,21.08
2023-03-27T22:12:00.648Z,20.98
2023-03-27T22:14:31.442Z,20.97
2023-03-27T22:17:02.245Z,20.94
2023-03-27T22:19:32.636Z,20.93
2023-03-27T22:22:03.954Z,20.93
2023-03-27T22:24:33.863Z,20.83
2023-03-27T22:27:03.697Z,20.77
2023-03-27T22:29:34.966Z,20.79
2023-03-27T22:32:05.414Z,20.74
2023-03-27T22:34:35.802Z,20.84
2023-03-27T22:37:07.705Z,20.87
2023-03-27T22:39:37.865Z,20.74
2023-03-27T22:42:08.013Z,20.81
2023-03-27T22:44:39.304Z,20.76
2023-03-27T22:47:09.971Z,20.73
2023-03-27T22:49:40.493Z,20.69
2023-03-27T22:52:10.321Z,20.66
2023-03-27T22:54:41.634Z,20.63
2023-03-27T22:57:12.529Z,20.70
2023-03-27T22:59:43.148Z,20.65
2023-03-27T23:02:13.895Z,20.53
2023-03-27T23:04:43.767Z,20.50
2023-03-27T23:07:14.392Z,20.47
2023-03-27T23:09:44.674Z,20.46
2023-03-27T23:12:15.325Z,20.49
2023-03-27T23:14:45.140Z,20.55
2023-03-27T23:17:15.502Z,20.52
2023-03-27T23:19:45.841Z,20.52
2023-03-27T23:22:16.066Z,20.55
2023-03-27T23:24:46.162Z,20.59
2023-03-27T23:27:16.417Z,20.50
2023-03-27T23:29:46.958Z,20.47
2023-03-27T23:32:18.138Z,20.50
2023-03-27T23:34:48.548Z,20.53
2023-03-27T23:37:18.764Z,20.45
2023-03-27T23:39:49.562Z,20.32
2023-03-27T23:42:19.574Z,20.30
2023-03-27T23:44:51.147Z,20.28
2023-03-27T23:47:21.912Z,20.12
2023-03-27T23:49:51.879Z,20.08
2023-03-27T23:52:21.824Z,20.15
2023-03-27T23:54:52.022Z,20.16
2023-03-27T23:57:22.465Z,20.24
2023-03-27T23:59:53.514Z,20.09
